createdAt,value
2018-08-23T00:00:10.785Z,21.22
2018-08-23T00:01:10.785Z,21.21
2018-08-23T00:02:10.784Z,21.16
2018-08-23T00:03:10.871Z,21.18
2018-08-23T00:04:10.786Z,21.13
2018-08-23T00:05:10.788Z,21.18
2018-08-23T00:06:10.789Z,21.13
2018-08-23T00:07:10.782Z,21.16
2018-08-23T00:08:10.780Z,21.15
2018-08-23T00:09:10.785Z,21.13
2018-08-23T00:10:10.807Z,21.09
2018-08-23T00:11:10.781Z,21.08
2018-08-23T00:12:10.777Z,21.06
2018-08-23T00:13:10.777Z,21.09
2018-08-23T00:14:10.777Z,21.11
2018-08-23T00:15:10.780Z,21.11
2018-08-23T00:16:10.787Z,21.11
2018-08-23T00:17:10.779Z,21.11
2018-08-23T00:18:10.781Z,21.08
2018-08-23T00:19:10.776Z,21.03
2018-08-23T00:20:10.773Z,21.13
2018-08-23T00:21:10.773Z,21.06
2018-08-23T00:22:10.772Z,21.03
2018-08-23T00:23:10.776Z,20.97
2018-08-23T00:24:10.775Z,20.97
2018-08-23T00:25:10.771Z,20.90
2018-08-23T00:26:10.770Z,20.83
2018-08-23T00:27:10.844Z,20.90
2018-08-23T00:28:10.773Z,20.87
2018-08-23T00:29:10.771Z,20.90
2018-08-23T00:30:10.771Z,20.87
2018-08-23T00:31:10.765Z,20.76
2018-08-23T00:32:10.763Z,20.82
2018-08-23T00:33:10.763Z,20.73
2018-08-23T00:34:10.763Z,20.78
2018-08-23T00:35:10.767Z,20.78
2018-08-23T00:36:10.766Z,20.71
2018-08-23T00:37:10.765Z,20.72
2018-08-23T00:38:10.765Z,20.72
2018-08-23T00:39:10.759Z,20.76
2018-08-23T00:40:10.759Z,20.76
2018-08-23T00:41:10.762Z,20.69
2018-08-23T00:42:10.761Z,20.78
2018-08-23T00:43:10.755Z,20.73
2018-08-23T00:44:10.754Z,20.76
2018-08-23T00:45:10.756Z,20.69
2018-08-23T00:46:10.753Z,20.73
2018-08-23T00:47:10.758Z,20.69
2018-08-23T00:48:10.756Z,20.72
2018-08-23T00:49:10.756Z,20.73
2018-08-23T00:50:10.756Z,20.73
2018-08-23T00:51:10.749Z,20.76
2018-08-23T00:52:10.747Z,20.66
2018-08-23T00:53:10.747Z,20.73
2018-08-23T00:54:10.806Z,20.75
2018-08-23T00:55:10.753Z,20.69
2018-08-23T00:56:10.749Z,20.68
2018-08-23T00:57:10.744Z,20.71
2018-08-23T00:58:10.742Z,20.68
2018-08-23T00:59:10.747Z,20.64
2018-08-23T01:00:10.745Z,20.66
2018-08-23T01:01:10.748Z,20.61
2018-08-23T01:02:10.744Z,20.60
2018-08-23T01:03:10.744Z,20.63
2018-08-23T01:04:10.738Z,20.50
2018-08-23T01:05:10.736Z,20.51
2018-08-23T01:06:10.735Z,20.51
2018-08-23T01:07:10.739Z,20.51
2018-08-23T01:08:10.740Z,20.48
2018-08-23T01:09:10.736Z,20.51
2018-08-23T01:10:10.737Z,20.46
2018-08-23T01:11:10.731Z,20.48
2018-08-23T01:12:10.728Z,20.48
2018-08-23T01:13:10.733Z,20.48
2018-08-23T01:14:10.732Z,20.40
2018-08-23T01:15:10.726Z,20.46
2018-08-23T01:16:10.725Z,20.46
2018-08-23T01:17:10.805Z,20.34
2018-08-23T01:18:10.723Z,20.37
2018-08-23T01:19:10.727Z,20.35
2018-08-23T01:20:10.725Z,20.35
2018-08-23T01:21:10.724Z,20.33
2018-08-23T01:22:10.723Z,20.31
2018-08-23T01:23:10.718Z,20.27
2018-08-23T01:24:10.717Z,20.30
2018-08-23T01:25:10.714Z,20.20
2018-08-23T01:26:10.715Z,20.22
2018-08-23T01:27:10.717Z,20.13
2018-08-23T01:28:10.715Z,20.19
2018-08-23T01:29:10.711Z,20.16
2018-08-23T01:30:10.709Z,20.13
2018-08-23T01:31:10.712Z,20.15
2018-08-23T01:32:10.710Z,20.20
2018-08-23T01:33:10.712Z,20.15
2018-08-23T01:34:10.713Z,20.20
2018-08-23T01:35:10.709Z,20.19
2018-08-23T01:36:10.701Z,20.07
2018-08-23T01:37:10.707Z,20.16
2018-08-23T01:38:10.703Z,20.20
2018-08-23T01:39:10.704Z,20.12
2018-08-23T01:40:10.700Z,20.08
2018-08-23T01:41:10.701Z,20.02
2018-08-23T01:42:10.700Z,19.97
2018-08-23T01:43:10.694Z,19.98
2018-08-23T01:44:10.691Z,20.04
2018-08-23T01:45:10.701Z,20.02
2018-08-23T01:46:10.695Z,19.95
2018-08-23T01:47:10.688Z,19.92
2018-08-23T01:48:10.687Z,19.92
2018-08-23T01:49:10.685Z,19.92
2018-08-23T01:50:10.684Z,19.86
2018-08-23T01:51:10.687Z,19.87
2018-08-23T01:52:10.686Z,19.94
2018-08-23T01:53:10.686Z,19.98
2018-08-23T01:54:10.684Z,19.86
2018-08-23T01:55:10.678Z,19.94
2018-08-23T01:56:10.677Z,19.94
2018-08-23T01:57:10.675Z,19.94
2018-08-23T01:58:10.674Z,19.86
2018-08-23T01:59:10.677Z,19.92
2018-08-23T02:00:10.676Z,19.90
2018-08-23T02:01:10.670Z,19.86
2018-08-23T02:02:10.668Z,19.80
2018-08-23T02:03:10.672Z,19.79
2018-08-23T02:04:10.669Z,19.75
2018-08-23T02:05:10.685Z,19.75
2018-08-23T02:06:10.669Z,19.76
2018-08-23T02:07:10.663Z,19.76
2018-08-23T02:08:10.660Z,19.71
2018-08-23T02:09:10.664Z,19.67
2018-08-23T02:10:10.657Z,19.68
2018-08-23T02:11:10.659Z,19.70
2018-08-23T02:12:10.660Z,19.72
2018-08-23T02:13:10.659Z,19.76
2018-08-23T02:14:10.657Z,19.58
2018-08-23T02:15:10.651Z,19.58
2018-08-23T02:16:10.648Z,19.55
2018-08-23T02:17:10.652Z,19.57
2018-08-23T02:18:10.654Z,19.42
2018-08-23T02:19:10.646Z,19.46
2018-08-23T02:20:10.643Z,19.42
2018-08-23T02:21:10.641Z,19.39
2018-08-23T02:22:10.640Z,19.38
2018-08-23T02:23:10.645Z,19.35
2018-08-23T02:24:10.641Z,19.31
2018-08-23T02:25:10.640Z,19.27
2018-08-23T02:26:10.639Z,19.30
2018-08-23T02:27:10.633Z,19.34
2018-08-23T02:28:10.632Z,19.34
2018-08-23T02:29:10.630Z,19.34
2018-08-23T02:30:10.628Z,19.35
2018-08-23T02:31:10.638Z,19.27
2018-08-23T02:32:10.630Z,19.25
2018-08-23T02:33:10.636Z,19.31
2018-08-23T02:34:10.622Z,19.30
2018-08-23T02:35:10.626Z,19.28
2018-08-23T02:36:10.624Z,19.28
2018-08-23T02:37:10.626Z,19.25
2018-08-23T02:38:10.687Z,19.25
2018-08-23T02:39:10.614Z,19.23
2018-08-23T02:40:10.612Z,19.24
2018-08-23T02:41:10.611Z,19.20
2018-08-23T02:42:10.611Z,19.20
2018-08-23T02:43:10.613Z,19.23
2018-08-23T02:44:10.610Z,19.20
2018-08-23T02:45:10.610Z,19.17
2018-08-23T02:46:10.608Z,19.16
2018-08-23T02:47:10.602Z,19.21
2018-08-23T02:48:10.600Z,19.15
2018-08-23T02:49:10.602Z,19.15
2018-08-23T02:50:10.601Z,19.15
2018-08-23T02:51:10.594Z,19.15
2018-08-23T02:52:10.592Z,19.13
2018-08-23T02:53:10.592Z,19.09
2018-08-23T02:54:10.591Z,19.10
2018-08-23T02:55:10.592Z,19.13
2018-08-23T02:56:10.590Z,19.01
2018-08-23T02:57:10.588Z,19.05
2018-08-23T02:58:10.586Z,19.06
2018-08-23T02:59:10.581Z,19.16
2018-08-23T03:00:10.578Z,19.12
2018-08-23T03:01:10.578Z,19.09
2018-08-23T03:02:10.575Z,19.16
2018-08-23T03:03:10.580Z,19.02
2018-08-23T03:04:10.577Z,19.10
2018-08-23T03:05:10.570Z,19.06
2018-08-23T03:06:10.568Z,19.12
2018-08-23T03:07:10.572Z,19.06
2018-08-23T03:08:10.570Z,19.06
2018-08-23T03:09:10.568Z,18.94
2018-08-23T03:10:10.571Z,18.97
2018-08-23T03:11:10.560Z,18.97
2018-08-23T03:12:10.558Z,19.05
2018-08-23T03:13:10.555Z,19.05
2018-08-23T03:14:10.590Z,18.99
2018-08-23T03:15:10.557Z,19.01
2018-08-23T03:16:10.559Z,18.94
2018-08-23T03:17:10.554Z,18.93
2018-08-23T03:18:10.552Z,18.97
2018-08-23T03:19:10.545Z,19.01
2018-08-23T03:20:10.555Z,18.94
2018-08-23T03:21:10.546Z,18.97
2018-08-23T03:22:10.545Z,18.99
2018-08-23T03:23:10.541Z,18.91
2018-08-23T03:24:10.536Z,18.90
2018-08-23T03:25:10.533Z,18.87
2018-08-23T03:26:10.533Z,18.89
2018-08-23T03:27:10.534Z,18.89
2018-08-23T03:28:10.532Z,18.93
2018-08-23T03:29:10.529Z,18.89
2018-08-23T03:30:10.530Z,18.89
2018-08-23T03:31:10.522Z,18.83
2018-08-23T03:32:10.520Z,18.87
2018-08-23T03:33:10.518Z,18.78
2018-08-23T03:34:10.516Z,18.76
2018-08-23T03:35:10.523Z,18.82
2018-08-23T03:36:10.517Z,18.82
2018-08-23T03:37:10.510Z,18.82
2018-08-23T03:38:10.509Z,18.78
2018-08-23T03:39:10.511Z,18.76
2018-08-23T03:40:10.509Z,18.76
2018-08-23T03:41:10.507Z,18.83
2018-08-23T03:42:10.505Z,18.79
2018-08-23T03:43:10.498Z,18.71
2018-08-23T03:44:10.495Z,18.69
2018-08-23T03:45:10.494Z,18.71
2018-08-23T03:46:10.493Z,18.69
2018-08-23T03:47:10.497Z,18.71
2018-08-23T03:48:10.492Z,18.68
2018-08-23T03:49:10.491Z,18.69
2018-08-23T03:50:10.490Z,18.69
2018-08-23T03:51:10.483Z,18.68
2018-08-23T03:52:10.479Z,18.69
2018-08-23T03:53:10.483Z,18.72
2018-08-23T03:54:10.481Z,18.68
2018-08-23T03:55:10.476Z,18.59
2018-08-23T03:56:10.472Z,18.68
2018-08-23T03:57:10.472Z,18.69
2018-08-23T03:58:10.469Z,18.59
2018-08-23T03:59:10.472Z,18.64
2018-08-23T04:00:10.470Z,18.66
2018-08-23T04:01:10.470Z,18.60
2018-08-23T04:02:10.468Z,18.68
2018-08-23T04:03:10.466Z,18.62
2018-08-23T04:04:10.455Z,18.65
2018-08-23T04:05:10.453Z,18.64
2018-08-23T04:06:10.452Z,18.53
2018-08-23T04:07:10.454Z,18.69
2018-08-23T04:08:10.453Z,18.64
2018-08-23T04:09:10.444Z,18.62
2018-08-23T04:10:10.442Z,18.68
2018-08-23T04:11:10.446Z,18.69
2018-08-23T04:12:10.446Z,18.64
2018-08-23T04:13:10.442Z,18.60
2018-08-23T04:14:10.441Z,18.62
2018-08-23T04:15:10.439Z,18.65
2018-08-23T04:16:10.429Z,18.59
2018-08-23T04:17:10.427Z,18.65
2018-08-23T04:18:10.425Z,18.66
2018-08-23T04:19:10.429Z,18.59
2018-08-23T04:20:10.426Z,18.62
2018-08-23T04:21:10.424Z,18.65
2018-08-23T04:22:10.425Z,18.54
2018-08-23T04:23:10.418Z,18.60
2018-08-23T04:24:10.413Z,18.66
2018-08-23T04:25:10.418Z,18.64
2018-08-23T04:26:10.412Z,18.65
2018-08-23T04:27:10.406Z,18.53
2018-08-23T04:28:10.402Z,18.66
2018-08-23T04:29:10.401Z,18.60
2018-08-23T04:30:10.400Z,18.62
2018-08-23T04:31:10.403Z,18.65
2018-08-23T04:32:10.400Z,18.60
2018-08-23T04:33:10.398Z,18.59
2018-08-23T04:34:10.396Z,18.57
2018-08-23T04:35:10.388Z,18.46
2018-08-23T04:36:10.385Z,18.59
2018-08-23T04:37:10.383Z,18.59
2018-08-23T04:38:10.382Z,18.64
2018-08-23T04:39:10.385Z,18.53
2018-08-23T04:40:10.382Z,18.56
2018-08-23T04:41:10.374Z,18.51
2018-08-23T04:42:10.376Z,18.64
2018-08-23T04:43:10.398Z,18.50
2018-08-23T04:44:10.372Z,18.54
2018-08-23T04:45:10.371Z,18.59
2018-08-23T04:46:10.369Z,18.51
2018-08-23T04:47:10.364Z,18.50
2018-08-23T04:48:10.358Z,18.49
2018-08-23T04:49:10.357Z,18.47
2018-08-23T04:50:10.355Z,18.54
2018-08-23T04:51:10.358Z,18.47
2018-08-23T04:52:10.355Z,18.47
2018-08-23T04:53:10.352Z,18.47
2018-08-23T04:54:10.351Z,18.50
2018-08-23T04:55:10.344Z,18.53
2018-08-23T04:56:10.341Z,18.53
2018-08-23T04:57:10.346Z,18.59
2018-08-23T04:58:10.342Z,18.54
2018-08-23T04:59:10.335Z,18.59
2018-08-23T05:00:10.332Z,18.60
2018-08-23T05:01:10.331Z,18.57
2018-08-23T05:02:10.328Z,18.65
2018-08-23T05:03:10.330Z,18.60
2018-08-23T05:04:10.425Z,18.64
2018-08-23T05:05:10.326Z,18.68
2018-08-23T05:06:10.325Z,18.66
2018-08-23T05:07:10.318Z,18.75
2018-08-23T05:08:10.314Z,18.90
2018-08-23T05:09:10.314Z,18.96
2018-08-23T05:10:10.312Z,19.10
2018-08-23T05:11:10.315Z,19.23
2018-08-23T05:12:10.312Z,19.34
2018-08-23T05:13:10.306Z,19.46
2018-08-23T05:14:10.384Z,19.60
2018-08-23T05:15:10.308Z,19.71
2018-08-23T05:16:10.304Z,19.90
2018-08-23T05:17:10.301Z,20.07
2018-08-23T05:18:10.309Z,20.15
2018-08-23T05:19:10.295Z,20.40
2018-08-23T05:20:10.292Z,20.44
2018-08-23T05:21:10.291Z,20.66
2018-08-23T05:22:10.289Z,20.79
2018-08-23T05:23:10.446Z,21.11
2018-08-23T05:24:10.291Z,21.30
2018-08-23T05:25:10.289Z,21.48
2018-08-23T05:26:10.289Z,21.53
2018-08-23T05:27:10.283Z,21.83
2018-08-23T05:28:10.281Z,22.09
2018-08-23T05:29:10.285Z,22.31
2018-08-23T05:30:10.285Z,22.52
2018-08-23T05:31:10.278Z,22.89
2018-08-23T05:32:10.278Z,23.04
2018-08-23T05:33:10.276Z,23.35
2018-08-23T05:34:10.276Z,23.52
2018-08-23T05:35:10.280Z,23.72
2018-08-23T05:36:10.280Z,23.97
2018-08-23T05:37:10.280Z,24.18
2018-08-23T05:38:10.281Z,24.33
2018-08-23T05:39:10.275Z,24.53
2018-08-23T05:40:10.275Z,24.74
2018-08-23T05:41:10.275Z,24.94
2018-08-23T05:42:10.277Z,25.12
2018-08-23T05:43:10.284Z,25.22
2018-08-23T05:44:10.282Z,25.49
2018-08-23T05:45:10.277Z,25.56
2018-08-23T05:46:10.278Z,25.64
2018-08-23T05:47:10.285Z,25.83
2018-08-23T05:48:10.289Z,26.00
2018-08-23T05:49:10.286Z,26.20
2018-08-23T05:50:10.290Z,26.31
2018-08-23T05:51:10.284Z,26.56
2018-08-23T05:52:10.284Z,26.66
2018-08-23T05:53:10.287Z,26.75
2018-08-23T05:54:10.289Z,26.76
2018-08-23T05:55:10.296Z,26.79
2018-08-23T05:56:10.297Z,27.09
2018-08-23T05:57:10.300Z,27.25
2018-08-23T05:58:10.301Z,27.40
2018-08-23T05:59:10.300Z,27.68
2018-08-23T06:00:10.301Z,27.87
2018-08-23T06:01:10.308Z,27.98
2018-08-23T06:02:10.314Z,28.21
2018-08-23T06:03:10.311Z,28.48
2018-08-23T06:04:10.312Z,28.67
2018-08-23T06:05:10.314Z,28.77
2018-08-23T06:06:10.318Z,28.83
2018-08-23T06:07:10.326Z,29.07
2018-08-23T06:08:10.360Z,29.14
2018-08-23T06:09:10.333Z,29.11
2018-08-23T06:10:10.337Z,29.26
2018-08-23T06:11:10.335Z,29.23
2018-08-23T06:12:10.338Z,29.03
2018-08-23T06:13:10.343Z,29.02
2018-08-23T06:14:10.408Z,29.00
2018-08-23T06:15:10.355Z,28.83
2018-08-23T06:16:10.360Z,28.79
2018-08-23T06:17:10.359Z,28.74
2018-08-23T06:18:10.364Z,28.64
2018-08-23T06:19:10.373Z,28.72
2018-08-23T06:20:10.407Z,28.77
2018-08-23T06:21:10.383Z,28.08
2018-08-23T06:22:10.388Z,28.14
2018-08-23T06:23:10.387Z,28.67
2018-08-23T06:24:10.394Z,29.00
2018-08-23T06:25:10.396Z,29.07
2018-08-23T06:26:10.401Z,29.57
2018-08-23T06:27:10.413Z,29.85
2018-08-23T06:28:10.418Z,30.19
2018-08-23T06:29:10.422Z,30.48
2018-08-23T06:30:10.427Z,30.32
2018-08-23T06:31:10.428Z,30.21
2018-08-23T06:32:10.441Z,30.40
2018-08-23T06:33:10.616Z,30.25
2018-08-23T06:34:10.540Z,30.37
2018-08-23T06:35:10.451Z,30.34
2018-08-23T06:36:10.458Z,30.30
2018-08-23T06:37:10.463Z,30.16
2018-08-23T06:38:10.476Z,30.59
2018-08-23T06:39:10.481Z,30.97
2018-08-23T06:40:10.487Z,30.67
2018-08-23T06:41:10.494Z,30.81
2018-08-23T06:42:10.500Z,31.04
2018-08-23T06:43:10.503Z,30.93
2018-08-23T06:44:10.510Z,30.86
2018-08-23T06:45:10.516Z,31.07
2018-08-23T06:46:10.564Z,31.47
2018-08-23T06:47:10.534Z,31.31
2018-08-23T06:48:10.539Z,31.31
2018-08-23T06:49:10.543Z,31.82
2018-08-23T06:50:10.550Z,31.59
2018-08-23T06:51:10.662Z,31.91
2018-08-23T06:52:10.570Z,31.90
2018-08-23T06:53:10.578Z,32.10
2018-08-23T06:54:10.587Z,32.17
2018-08-23T06:55:10.590Z,31.74
2018-08-23T06:56:10.600Z,31.67
2018-08-23T06:57:10.607Z,32.31
2018-08-23T06:58:10.613Z,32.83
2018-08-23T06:59:10.626Z,33.40
2018-08-23T07:00:10.634Z,32.76
2018-08-23T07:01:10.644Z,32.50
2018-08-23T07:02:10.651Z,32.83
2018-08-23T07:03:10.656Z,33.21
2018-08-23T07:04:10.664Z,33.44
2018-08-23T07:05:10.677Z,33.50
2018-08-23T07:06:10.687Z,33.71
2018-08-23T07:07:10.691Z,33.90
2018-08-23T07:08:10.699Z,34.28
2018-08-23T07:09:10.709Z,34.65
2018-08-23T07:10:10.720Z,34.78
2018-08-23T07:11:10.732Z,34.65
2018-08-23T07:12:10.741Z,35.10
2018-08-23T07:13:10.753Z,35.12
2018-08-23T07:14:10.760Z,35.15
2018-08-23T07:15:10.766Z,35.49
2018-08-23T07:16:10.776Z,35.52
2018-08-23T07:17:10.805Z,34.80
2018-08-23T07:18:10.797Z,34.76
2018-08-23T07:19:10.813Z,34.69
2018-08-23T07:20:10.822Z,35.00
2018-08-23T07:21:10.829Z,35.18
2018-08-23T07:22:10.843Z,34.98
2018-08-23T07:23:10.853Z,34.58
2018-08-23T07:24:10.882Z,34.69
2018-08-23T07:25:10.879Z,35.12
2018-08-23T07:26:10.913Z,34.06
2018-08-23T07:27:10.894Z,34.33
2018-08-23T07:28:10.901Z,34.94
2018-08-23T07:29:10.924Z,35.46
2018-08-23T07:30:10.932Z,35.42
2018-08-23T07:31:10.939Z,35.68
2018-08-23T07:32:10.950Z,35.55
2018-08-23T07:33:11.028Z,35.92
2018-08-23T07:34:10.973Z,36.13
2018-08-23T07:35:10.979Z,36.31
2018-08-23T07:36:10.993Z,36.46
2018-08-23T07:37:11.007Z,35.85
2018-08-23T07:38:11.024Z,36.06
2018-08-23T07:39:11.030Z,36.34
2018-08-23T07:40:11.038Z,36.79
2018-08-23T07:41:11.049Z,37.04
2018-08-23T07:42:11.061Z,36.90
2018-08-23T07:43:11.184Z,37.30
2018-08-23T07:44:11.088Z,37.08
2018-08-23T07:45:11.101Z,36.94
2018-08-23T07:46:11.115Z,37.34
2018-08-23T07:47:11.121Z,37.56
2018-08-23T07:48:11.133Z,36.35
2018-08-23T07:49:11.147Z,36.57
2018-08-23T07:50:11.160Z,34.98
2018-08-23T07:51:11.177Z,35.07
2018-08-23T07:52:11.189Z,35.21
2018-08-23T07:53:11.273Z,34.81
2018-08-23T07:54:11.216Z,34.75
2018-08-23T07:55:11.229Z,35.40
2018-08-23T07:56:11.240Z,35.36
2018-08-23T07:57:11.252Z,34.91
2018-08-23T07:58:11.265Z,34.27
2018-08-23T07:59:11.275Z,34.91
2018-08-23T08:00:11.287Z,35.52
2018-08-23T08:01:11.300Z,35.62
2018-08-23T08:02:11.313Z,34.50
2018-08-23T08:03:11.332Z,34.42
2018-08-23T08:04:11.344Z,34.61
2018-08-23T08:05:11.356Z,35.22
2018-08-23T08:06:11.371Z,35.84
2018-08-23T08:07:11.379Z,35.73
2018-08-23T08:08:11.391Z,35.93
2018-08-23T08:09:11.409Z,36.71
2018-08-23T08:10:11.423Z,37.27
2018-08-23T08:11:11.434Z,37.59
2018-08-23T08:12:11.496Z,37.77
2018-08-23T08:13:11.460Z,38.31
2018-08-23T08:14:11.476Z,38.72
2018-08-23T08:15:11.602Z,39.22
2018-08-23T08:16:11.505Z,39.81
2018-08-23T08:17:11.520Z,40.25
2018-08-23T08:18:11.533Z,39.70
2018-08-23T08:19:11.548Z,39.70
2018-08-23T08:20:11.556Z,39.92
2018-08-23T08:21:11.572Z,40.06
2018-08-23T08:22:11.586Z,39.43
2018-08-23T08:23:11.604Z,38.82
2018-08-23T08:24:11.617Z,38.60
2018-08-23T08:25:11.630Z,38.33
2018-08-23T08:26:11.644Z,37.53
2018-08-23T08:27:11.674Z,35.52
2018-08-23T08:28:11.677Z,36.40
2018-08-23T08:29:11.693Z,35.02
2018-08-23T08:30:11.707Z,35.46
2018-08-23T08:31:11.719Z,35.29
2018-08-23T08:32:11.732Z,36.23
2018-08-23T08:33:11.812Z,37.25
2018-08-23T08:34:11.767Z,37.63
2018-08-23T08:35:11.782Z,38.31
2018-08-23T08:36:11.797Z,38.78
2018-08-23T08:37:11.812Z,38.89
2018-08-23T08:38:11.828Z,39.41
2018-08-23T08:39:11.840Z,39.92
2018-08-23T08:40:11.853Z,39.16
2018-08-23T08:41:11.873Z,39.36
2018-08-23T08:42:11.890Z,38.82
2018-08-23T08:43:11.900Z,38.98
2018-08-23T08:44:11.916Z,39.34
2018-08-23T08:45:11.932Z,38.53
2018-08-23T08:46:11.949Z,37.87
2018-08-23T08:47:11.970Z,37.68
2018-08-23T08:48:11.984Z,38.03
2018-08-23T08:49:12.001Z,38.59
2018-08-23T08:50:12.021Z,39.02
2018-08-23T08:51:12.028Z,38.81
2018-08-23T08:52:12.044Z,38.68
2018-08-23T08:53:12.062Z,38.60
2018-08-23T08:54:12.077Z,38.87
2018-08-23T08:55:12.096Z,38.93
2018-08-23T08:56:12.113Z,39.35
2018-08-23T08:57:12.127Z,39.88
2018-08-23T08:58:12.140Z,40.36
2018-08-23T08:59:12.160Z,40.97
2018-08-23T09:00:12.176Z,41.54
2018-08-23T09:01:12.193Z,41.80
2018-08-23T09:02:12.212Z,42.02
2018-08-23T09:03:12.287Z,41.69
2018-08-23T09:04:12.238Z,41.69
2018-08-23T09:05:12.258Z,40.79
2018-08-23T09:06:12.272Z,39.13
2018-08-23T09:07:12.293Z,36.96
2018-08-23T09:08:12.309Z,36.59
2018-08-23T09:09:12.327Z,36.08
2018-08-23T09:10:12.344Z,37.11
2018-08-23T09:11:12.356Z,37.35
2018-08-23T09:12:12.372Z,37.88
2018-08-23T09:13:12.396Z,36.72
2018-08-23T09:14:12.414Z,36.86
2018-08-23T09:15:12.421Z,37.11
2018-08-23T09:16:12.438Z,37.93
2018-08-23T09:17:12.454Z,38.31
2018-08-23T09:18:12.471Z,38.41
2018-08-23T09:19:12.494Z,38.77
2018-08-23T09:20:12.509Z,38.87
2018-08-23T09:21:12.523Z,37.68
2018-08-23T09:22:12.543Z,36.38
2018-08-23T09:23:12.554Z,35.96
2018-08-23T09:24:12.567Z,36.67
2018-08-23T09:25:12.620Z,36.15
2018-08-23T09:26:12.600Z,36.08
2018-08-23T09:27:12.752Z,37.01
2018-08-23T09:28:12.635Z,36.75
2018-08-23T09:29:12.645Z,36.43
2018-08-23T09:30:12.662Z,37.42
2018-08-23T09:31:12.683Z,38.56
2018-08-23T09:32:12.779Z,39.32
2018-08-23T09:33:12.711Z,40.06
2018-08-23T09:34:12.726Z,40.16
2018-08-23T09:35:12.876Z,39.62
2018-08-23T09:36:12.752Z,39.73
2018-08-23T09:37:12.769Z,39.59
2018-08-23T09:38:12.786Z,39.44
2018-08-23T09:39:12.806Z,39.85
2018-08-23T09:40:12.819Z,39.43
2018-08-23T09:41:12.837Z,39.19
2018-08-23T09:42:12.853Z,38.49
2018-08-23T09:43:12.867Z,37.80
2018-08-23T09:44:12.884Z,38.50
2018-08-23T09:45:12.901Z,38.37
2018-08-23T09:46:12.915Z,39.32
2018-08-23T09:47:12.926Z,39.50
2018-08-23T09:48:12.943Z,40.02
2018-08-23T09:49:12.956Z,40.26
2018-08-23T09:50:13.019Z,40.48
2018-08-23T09:51:13.060Z,39.61
2018-08-23T09:52:13.010Z,39.28
2018-08-23T09:53:13.022Z,39.05
2018-08-23T09:54:13.039Z,38.87
2018-08-23T09:55:13.051Z,38.37
2018-08-23T09:56:13.065Z,38.60
2018-08-23T09:57:13.081Z,37.56
2018-08-23T09:58:13.096Z,36.83
2018-08-23T09:59:13.117Z,37.38
2018-08-23T10:00:13.131Z,37.93
2018-08-23T10:01:13.145Z,37.47
2018-08-23T10:02:13.159Z,37.59
2018-08-23T10:03:13.179Z,38.40
2018-08-23T10:04:13.197Z,39.01
2018-08-23T10:05:13.208Z,39.66
2018-08-23T10:06:13.225Z,40.45
2018-08-23T10:07:13.240Z,40.66
2018-08-23T10:08:13.250Z,40.97
2018-08-23T10:09:13.268Z,41.47
2018-08-23T10:10:13.282Z,41.16
2018-08-23T10:11:13.360Z,41.69
2018-08-23T10:12:13.320Z,41.97
2018-08-23T10:13:13.336Z,41.96
2018-08-23T10:14:13.353Z,41.31
2018-08-23T10:15:13.365Z,40.72
2018-08-23T10:16:13.380Z,40.45
2018-08-23T10:17:13.401Z,40.98
2018-08-23T10:18:13.421Z,41.58
2018-08-23T10:19:13.430Z,41.83
2018-08-23T10:20:13.445Z,41.88
2018-08-23T10:21:13.461Z,41.66
2018-08-23T10:22:13.479Z,41.31
2018-08-23T10:23:13.500Z,40.71
2018-08-23T10:24:13.514Z,41.12
2018-08-23T10:25:13.532Z,41.41
2018-08-23T10:26:13.549Z,41.55
2018-08-23T10:27:13.562Z,41.04
2018-08-23T10:28:13.577Z,40.75
2018-08-23T10:29:13.593Z,40.49
2018-08-23T10:30:13.610Z,40.06
2018-08-23T10:31:13.632Z,40.39
2018-08-23T10:32:13.755Z,40.68
2018-08-23T10:33:13.659Z,40.33
2018-08-23T10:34:13.676Z,40.36
2018-08-23T10:35:13.699Z,40.45
2018-08-23T10:36:13.715Z,41.13
2018-08-23T10:37:13.731Z,40.02
2018-08-23T10:38:13.772Z,40.57
2018-08-23T10:39:13.761Z,40.16
2018-08-23T10:40:13.778Z,39.82
2018-08-23T10:41:13.795Z,40.54
2018-08-23T10:42:13.808Z,40.46
2018-08-23T10:43:13.831Z,40.02
2018-08-23T10:44:13.890Z,40.24
2018-08-23T10:45:13.863Z,40.44
2018-08-23T10:46:13.881Z,40.11
2018-08-23T10:47:13.891Z,40.04
2018-08-23T10:48:13.906Z,40.00
2018-08-23T10:49:13.928Z,39.94
2018-08-23T10:50:13.944Z,39.94
2018-08-23T10:51:14.032Z,40.19
2018-08-23T10:52:13.971Z,40.22
2018-08-23T10:53:13.988Z,40.45
2018-08-23T10:54:14.007Z,40.03
2018-08-23T10:55:14.026Z,40.13
2018-08-23T10:56:14.041Z,40.00
2018-08-23T10:57:14.057Z,40.19
2018-08-23T10:58:14.075Z,40.61
2018-08-23T10:59:14.185Z,41.07
2018-08-23T11:00:14.102Z,41.20
2018-08-23T11:01:14.117Z,41.57
2018-08-23T11:02:14.134Z,42.04
2018-08-23T11:03:14.154Z,41.93
2018-08-23T11:04:14.171Z,41.42
2018-08-23T11:05:14.188Z,41.33
2018-08-23T11:06:14.200Z,41.35
2018-08-23T11:07:14.223Z,40.98
2018-08-23T11:08:14.238Z,40.68
2018-08-23T11:09:14.256Z,40.72
2018-08-23T11:10:14.276Z,40.58
2018-08-23T11:11:14.285Z,40.42
2018-08-23T11:12:14.304Z,40.83
2018-08-23T11:13:14.318Z,41.28
2018-08-23T11:14:14.335Z,41.28
2018-08-23T11:15:14.358Z,41.55
2018-08-23T11:16:14.374Z,41.69
2018-08-23T11:17:14.449Z,42.09
2018-08-23T11:18:14.406Z,41.46
2018-08-23T11:19:14.419Z,41.50
2018-08-23T11:20:14.434Z,41.85
2018-08-23T11:21:14.458Z,41.47
2018-08-23T11:22:14.475Z,40.79
2018-08-23T11:23:14.519Z,40.88
2018-08-23T11:24:14.502Z,40.68
2018-08-23T11:25:14.518Z,40.33
2018-08-23T11:26:14.533Z,40.00
2018-08-23T11:27:14.560Z,39.70
2018-08-23T11:28:14.571Z,39.62
2018-08-23T11:29:14.586Z,39.31
2018-08-23T11:30:14.644Z,39.12
2018-08-23T11:31:14.612Z,38.81
2018-08-23T11:32:14.627Z,38.18
2018-08-23T11:33:14.641Z,37.70
2018-08-23T11:34:14.656Z,37.54
2018-08-23T11:35:14.763Z,37.27
2018-08-23T11:36:14.690Z,37.08
2018-08-23T11:37:14.698Z,36.87
2018-08-23T11:38:14.715Z,36.75
2018-08-23T11:39:14.730Z,36.69
2018-08-23T11:40:14.744Z,36.41
2018-08-23T11:41:14.757Z,36.33
2018-08-23T11:42:14.771Z,36.33
2018-08-23T11:43:14.778Z,35.96
2018-08-23T11:44:14.789Z,35.37
2018-08-23T11:45:14.801Z,35.20
2018-08-23T11:46:14.813Z,35.00
2018-08-23T11:47:14.830Z,34.45
2018-08-23T11:48:14.840Z,34.53
2018-08-23T11:49:14.853Z,34.55
2018-08-23T11:50:14.862Z,34.61
2018-08-23T11:51:14.870Z,34.64
2018-08-23T11:52:14.879Z,34.64
2018-08-23T11:53:14.997Z,34.73
2018-08-23T11:54:14.903Z,34.46
2018-08-23T11:55:14.910Z,34.48
2018-08-23T11:56:14.920Z,34.55
2018-08-23T11:57:14.927Z,34.53
2018-08-23T11:58:14.938Z,34.58
2018-08-23T11:59:15.046Z,34.56
2018-08-23T12:00:14.960Z,34.56
2018-08-23T12:01:14.970Z,34.45
2018-08-23T12:02:14.979Z,34.23
2018-08-23T12:03:14.983Z,34.03
2018-08-23T12:04:14.991Z,33.97
2018-08-23T12:05:15.000Z,34.00
2018-08-23T12:06:15.010Z,33.82
2018-08-23T12:07:15.022Z,33.78
2018-08-23T12:08:15.029Z,33.75
2018-08-23T12:09:15.034Z,33.75
2018-08-23T12:10:15.043Z,33.78
2018-08-23T12:11:15.055Z,33.71
2018-08-23T12:12:15.063Z,33.77
2018-08-23T12:13:15.072Z,33.82
2018-08-23T12:14:15.080Z,33.86
2018-08-23T12:15:15.082Z,33.74
2018-08-23T12:16:15.106Z,33.72
2018-08-23T12:17:15.097Z,33.65
2018-08-23T12:18:15.105Z,33.34
2018-08-23T12:19:15.117Z,33.18
2018-08-23T12:20:15.125Z,33.15
2018-08-23T12:21:15.138Z,33.09
2018-08-23T12:22:15.141Z,33.09
2018-08-23T12:23:15.142Z,33.00
2018-08-23T12:24:15.151Z,33.24
2018-08-23T12:25:15.163Z,33.29
2018-08-23T12:26:15.225Z,33.20
2018-08-23T12:27:15.171Z,33.33
2018-08-23T12:28:15.180Z,33.34
2018-08-23T12:29:15.186Z,33.37
2018-08-23T12:30:15.194Z,33.45
2018-08-23T12:31:15.239Z,33.41
2018-08-23T12:32:15.211Z,33.57
2018-08-23T12:33:15.220Z,33.57
2018-08-23T12:34:15.249Z,33.50
2018-08-23T12:35:15.229Z,33.52
2018-08-23T12:36:15.235Z,33.53
2018-08-23T12:37:15.243Z,33.55
2018-08-23T12:38:15.251Z,33.38
2018-08-23T12:39:15.308Z,33.33
2018-08-23T12:40:15.294Z,33.07
2018-08-23T12:41:15.270Z,33.12
2018-08-23T12:42:15.295Z,33.07
2018-08-23T12:43:15.290Z,33.15
2018-08-23T12:44:15.296Z,33.21
2018-08-23T12:45:15.301Z,33.29
2018-08-23T12:46:15.321Z,33.12
2018-08-23T12:47:15.311Z,33.00
2018-08-23T12:48:15.318Z,33.02
2018-08-23T12:49:15.387Z,33.07
2018-08-23T12:50:15.332Z,33.15
2018-08-23T12:51:15.348Z,33.00
2018-08-23T12:52:15.351Z,33.03